createdAt,value
2023-03-01T00:00:35.628Z,61.50
2023-03-01T00:04:04.985Z,57.40
2023-03-01T00:07:31.652Z,57.30
2023-03-01T00:11:08.038Z,58.80
2023-03-01T00:14:34.935Z,58.40
2023-03-01T00:18:02.024Z,61.70
2023-03-01T00:21:32.326Z,59.50
2023-03-01T00:25:04.119Z,55.90
2023-03-01T00:28:31.200Z,58.80
2023-03-01T00:31:57.750Z,56.10
2023-03-01T00:35:25.480Z,54.90
2023-03-01T00:38:53.685Z,55.50
2023-03-01T00:42:20.947Z,55.60
2023-03-01T00:45:48.446Z,57.10
2023-03-01T00:49:15.625Z,56.10
2023-03-01T00:52:43.479Z,54.70
2023-03-01T00:56:13.269Z,54.20
2023-03-01T00:59:41.346Z,53.00
2023-03-01T01:03:15.193Z,52.60
2023-03-01T01:06:50.679Z,49.40
2023-03-01T01:10:19.183Z,55.10
2023-03-01T01:13:46.579Z,53.60
2023-03-01T01:17:13.490Z,54.50
2023-03-01T01:20:41.224Z,54.60
2023-03-01T01:24:09.882Z,54.20
2023-03-01T01:27:37.558Z,50.90
2023-03-01T01:31:04.321Z,52.70
2023-03-01T01:34:30.932Z,49.80
2023-03-01T01:37:58.174Z,48.20
2023-03-01T01:41:27.182Z,51.40
2023-03-01T01:45:33.361Z,48.00
2023-03-01T01:49:04.677Z,44.60
2023-03-01T01:52:37.544Z,42.40
2023-03-01T01:56:09.324Z,39.30
2023-03-01T01:59:37.389Z,39.80
2023-03-01T02:03:07.545Z,40.90
2023-03-01T02:06:39.319Z,40.70
2023-03-01T02:10:07.408Z,39.40
2023-03-01T02:13:34.979Z,40.00
2023-03-01T02:17:02.991Z,39.00
2023-03-01T02:20:36.013Z,40.40
2023-03-01T02:24:13.049Z,39.60
2023-03-01T02:27:46.692Z,38.50
2023-03-01T02:31:38.516Z,36.20
2023-03-01T02:35:07.837Z,36.40
2023-03-01T02:38:34.693Z,37.80
2023-03-01T02:42:01.850Z,36.30
2023-03-01T02:45:29.921Z,35.60
2023-03-01T02:49:00.043Z,36.30
2023-03-01T02:52:42.198Z,36.10
2023-03-01T02:56:14.160Z,35.00
2023-03-01T02:59:43.887Z,35.90
2023-03-01T03:03:11.009Z,35.30
2023-03-01T03:06:38.262Z,35.10
2023-03-01T03:10:05.949Z,34.10
2023-03-01T03:13:33.458Z,34.00
2023-03-01T03:17:00.405Z,33.60
2023-03-01T03:20:29.884Z,33.20
2023-03-01T03:23:58.377Z,32.80
2023-03-01T03:27:26.035Z,32.10
2023-03-01T03:30:52.748Z,30.90
2023-03-01T03:34:19.421Z,31.40
2023-03-01T03:38:04.648Z,30.30
2023-03-01T03:41:31.434Z,30.30
2023-03-01T03:44:58.487Z,31.70
2023-03-01T03:48:25.859Z,28.30
2023-03-01T03:51:52.820Z,28.40
2023-03-01T03:55:20.856Z,29.70
2023-03-01T03:58:48.177Z,26.60
2023-03-01T04:02:23.439Z,26.50
2023-03-01T04:05:51.793Z,24.20
2023-03-01T04:09:18.357Z,25.20
2023-03-01T04:12:46.020Z,25.40
2023-03-01T04:16:12.503Z,25.70
2023-03-01T04:19:39.322Z,25.90
2023-03-01T04:23:14.566Z,24.80
2023-03-01T04:26:41.865Z,25.80
2023-03-01T04:30:12.203Z,26.60
2023-03-01T04:33:39.766Z,30.50
2023-03-01T04:37:06.270Z,31.30
2023-03-01T04:40:34.534Z,29.60
2023-03-01T04:44:01.765Z,29.10
2023-03-01T04:47:28.323Z,30.60
2023-03-01T04:50:54.984Z,31.30
2023-03-01T04:54:22.155Z,30.50
2023-03-01T04:57:49.826Z,31.20
2023-03-01T05:01:20.025Z,31.30
2023-03-01T05:04:47.315Z,31.40
2023-03-01T05:08:18.652Z,31.20
2023-03-01T05:11:45.815Z,30.10
2023-03-01T05:15:14.516Z,28.70
2023-03-01T05:18:42.871Z,28.90
2023-03-01T05:22:09.377Z,28.00
2023-03-01T05:25:41.598Z,30.10
2023-03-01T05:29:11.010Z,29.10
2023-03-01T05:32:40.174Z,29.50
2023-03-01T05:36:09.435Z,30.00
2023-03-01T05:39:36.246Z,28.50
2023-03-01T05:43:06.361Z,28.10
2023-03-01T05:46:32.960Z,29.00
2023-03-01T05:50:00.012Z,31.40
2023-03-01T05:53:27.732Z,31.60
2023-03-01T05:56:54.879Z,34.70
2023-03-01T06:00:24.436Z,32.20
2023-03-01T06:03:51.079Z,32.80
2023-03-01T06:07:17.789Z,33.30
2023-03-01T06:10:44.983Z,32.90
2023-03-01T06:14:16.051Z,34.00
2023-03-01T06:17:45.254Z,34.90
2023-03-01T06:21:12.028Z,32.10
2023-03-01T06:24:38.650Z,31.00
2023-03-01T06:28:05.706Z,30.90
2023-03-01T06:31:32.740Z,32.30
2023-03-01T06:34:59.786Z,27.50
2023-03-01T06:38:26.767Z,28.00
2023-03-01T06:41:54.295Z,26.20
2023-03-01T06:45:23.364Z,24.60
2023-03-01T06:48:52.427Z,25.00
2023-03-01T06:52:20.780Z,23.70
2023-03-01T06:55:49.237Z,23.40
2023-03-01T06:59:16.556Z,23.60
2023-03-01T07:02:43.531Z,21.80
2023-03-01T07:06:11.794Z,20.90
2023-03-01T07:09:38.750Z,21.90
2023-03-01T07:13:07.945Z,20.80
2023-03-01T07:16:35.659Z,22.80
2023-03-01T07:20:02.859Z,20.50
2023-03-01T07:23:29.658Z,19.90
2023-03-01T07:26:56.684Z,17.70
2023-03-01T07:30:23.724Z,18.90
2023-03-01T07:33:50.927Z,17.40
2023-03-01T07:37:17.889Z,17.10
2023-03-01T07:40:44.765Z,17.70
2023-03-01T07:44:13.815Z,16.80
2023-03-01T07:47:40.678Z,16.80
2023-03-01T07:51:09.985Z,18.00
2023-03-01T07:54:38.113Z,16.20
2023-03-01T07:58:04.812Z,18.40
2023-03-01T08:01:31.619Z,17.40
2023-03-01T08:04:58.460Z,18.10
2023-03-01T08:08:25.873Z,17.50
2023-03-01T08:11:53.681Z,16.80
2023-03-01T08:15:21.336Z,17.40
2023-03-01T08:18:48.000Z,18.10
2023-03-01T08:22:14.606Z,20.30
2023-03-01T08:25:42.010Z,17.70
2023-03-01T08:29:08.972Z,18.00
2023-03-01T08:32:40.014Z,17.60
2023-03-01T08:36:11.398Z,18.30
2023-03-01T08:39:38.438Z,18.20
2023-03-01T08:43:05.137Z,18.90
2023-03-01T08:46:34.030Z,17.60
2023-03-01T08:50:02.144Z,16.80
2023-03-01T08:53:28.922Z,16.90
2023-03-01T08:56:55.911Z,18.30
2023-03-01T09:00:27.146Z,17.90
2023-03-01T09:03:53.894Z,17.40
2023-03-01T09:07:20.698Z,16.50
2023-03-01T09:10:50.321Z,16.30
2023-03-01T09:14:17.509Z,17.90
2023-03-01T09:17:44.039Z,18.30
2023-03-01T09:21:13.125Z,17.50
2023-03-01T09:24:40.850Z,16.00
2023-03-01T09:28:27.570Z,17.10
2023-03-01T09:31:56.945Z,17.30
2023-03-01T09:35:24.136Z,15.80
2023-03-01T09:38:54.212Z,16.40
2023-03-01T09:42:21.645Z,14.10
2023-03-01T09:45:52.419Z,14.30
2023-03-01T09:49:25.667Z,13.10
2023-03-01T09:52:57.184Z,13.50
2023-03-01T09:56:27.897Z,13.90
2023-03-01T10:00:13.843Z,13.80
2023-03-01T10:03:46.530Z,13.20
2023-03-01T10:07:29.827Z,14.30
2023-03-01T10:10:57.780Z,14.10
2023-03-01T10:14:34.305Z,14.80
2023-03-01T10:18:08.757Z,13.10
2023-03-01T10:21:43.671Z,12.20
2023-03-01T10:25:15.570Z,12.60
2023-03-01T10:28:53.091Z,12.10
2023-03-01T10:32:25.046Z,13.00
2023-03-01T10:35:52.152Z,12.70
2023-03-01T10:39:22.000Z,11.70
2023-03-01T10:42:52.845Z,13.10
2023-03-01T10:46:31.075Z,11.80
2023-03-01T10:50:03.059Z,11.50
2023-03-01T10:53:34.625Z,11.10
2023-03-01T10:57:03.846Z,11.60
2023-03-01T11:00:31.454Z,11.70
2023-03-01T11:04:16.108Z,12.90
2023-03-01T11:07:53.105Z,10.40
2023-03-01T11:11:32.574Z,10.50
2023-03-01T11:15:01.482Z,10.80
2023-03-01T11:18:45.825Z,10.70
2023-03-01T11:22:20.813Z,10.70
2023-03-01T11:25:54.208Z,9.90
2023-03-01T11:29:43.224Z,11.10
2023-03-01T11:33:24.315Z,11.30
2023-03-01T11:36:56.347Z,11.40
2023-03-01T11:40:28.413Z,10.60
2023-03-01T11:44:02.023Z,11.70
2023-03-01T11:47:42.253Z,12.40
2023-03-01T11:51:18.451Z,11.70
2023-03-01T11:55:00.258Z,12.20
2023-03-01T11:58:44.679Z,11.00
2023-03-01T12:02:37.563Z,11.60
2023-03-01T12:06:25.313Z,11.10
2023-03-01T12:10:15.389Z,11.40
2023-03-01T12:14:15.277Z,12.60
2023-03-01T12:18:00.859Z,11.80
2023-03-01T12:21:42.225Z,11.50
2023-03-01T12:25:23.414Z,12.00
2023-03-01T12:29:09.045Z,12.00
2023-03-01T12:32:53.882Z,10.70
2023-03-01T12:36:34.143Z,11.40
2023-03-01T12:40:19.473Z,11.50
2023-03-01T12:43:59.712Z,11.70
2023-03-01T12:47:38.881Z,12.10
2023-03-01T12:51:12.099Z,11.50
2023-03-01T12:54:40.766Z,11.90
2023-03-01T12:58:22.466Z,12.80
2023-03-01T13:01:59.144Z,12.80
2023-03-01T13:05:37.707Z,14.80
2023-03-01T13:09:11.981Z,12.10
2023-03-01T13:12:53.888Z,13.80
2023-03-01T13:16:46.300Z,11.50
2023-03-01T13:20:19.737Z,13.00
2023-03-01T13:27:30.508Z,11.10
2023-03-01T13:30:57.298Z,10.80
2023-03-01T13:34:47.796Z,11.00
2023-03-01T13:38:56.382Z,11.80
2023-03-01T13:42:48.159Z,10.50
2023-03-01T13:46:23.163Z,10.50
2023-03-01T13:49:54.729Z,10.40
2023-03-01T13:53:25.247Z,11.90
2023-03-01T13:56:53.347Z,11.10
2023-03-01T14:00:38.762Z,11.50
2023-03-01T14:04:21.037Z,11.80
2023-03-01T14:07:55.003Z,12.30
2023-03-01T14:11:56.045Z,15.40
2023-03-01T14:15:30.516Z,14.70
2023-03-01T14:19:12.722Z,12.80
2023-03-01T14:22:43.206Z,12.60
2023-03-01T14:26:10.730Z,13.40
2023-03-01T14:29:42.405Z,13.50
2023-03-01T14:33:21.448Z,13.30
2023-03-01T14:36:48.222Z,11.60
2023-03-01T14:40:29.488Z,10.40
2023-03-01T14:43:59.792Z,11.20
2023-03-01T14:47:32.285Z,10.60
2023-03-01T14:51:01.261Z,11.00
2023-03-01T14:54:37.651Z,10.50
2023-03-01T14:58:07.791Z,10.30
2023-03-01T15:01:34.788Z,10.20
2023-03-01T15:05:08.564Z,8.60
2023-03-01T15:08:37.720Z,7.90
2023-03-01T15:12:24.954Z,8.00
2023-03-01T15:15:53.244Z,8.20
2023-03-01T15:19:22.894Z,8.20
2023-03-01T15:22:50.387Z,8.80
2023-03-01T15:26:30.484Z,8.60
2023-03-01T15:30:00.343Z,8.30
2023-03-01T15:33:37.282Z,8.40
2023-03-01T15:37:09.882Z,7.40
2023-03-01T15:40:39.368Z,8.00
2023-03-01T15:44:19.582Z,7.40
2023-03-01T15:47:52.501Z,6.80
2023-03-01T15:54:45.213Z,6.90
2023-03-01T15:58:17.803Z,6.40
2023-03-01T16:01:45.663Z,6.90
2023-03-01T16:05:21.447Z,7.00
2023-03-01T16:08:48.661Z,5.60
2023-03-01T16:12:19.015Z,5.80
2023-03-01T16:15:49.905Z,6.40
2023-03-01T16:19:17.015Z,6.50
2023-03-01T16:22:44.942Z,6.10
2023-03-01T16:26:12.495Z,5.90
2023-03-01T16:29:39.163Z,6.60
2023-03-01T16:33:28.822Z,6.80
2023-03-01T16:36:56.765Z,8.30
2023-03-01T16:40:25.790Z,8.20
2023-03-01T16:43:53.362Z,8.70
2023-03-01T16:47:20.826Z,10.00
2023-03-01T16:50:57.769Z,10.60
2023-03-01T16:54:24.819Z,11.00
2023-03-01T16:57:57.239Z,11.70
2023-03-01T17:01:27.124Z,11.50
2023-03-01T17:04:59.535Z,10.60
2023-03-01T17:08:31.193Z,9.70
2023-03-01T17:11:59.166Z,11.60
2023-03-01T17:15:26.550Z,12.60
2023-03-01T17:18:59.043Z,14.20
2023-03-01T17:22:28.562Z,13.80
2023-03-01T17:25:56.200Z,15.70
2023-03-01T17:29:23.650Z,15.10
2023-03-01T17:32:51.113Z,16.40
2023-03-01T17:36:19.535Z,19.80
2023-03-01T17:39:47.059Z,20.80
2023-03-01T17:43:14.363Z,23.40
2023-03-01T17:46:49.011Z,26.80
2023-03-01T17:50:18.837Z,28.00
2023-03-01T17:53:49.534Z,28.10
2023-03-01T17:57:22.564Z,29.10
2023-03-01T18:00:51.318Z,30.70
2023-03-01T18:04:19.396Z,31.30
2023-03-01T18:07:49.179Z,34.50
2023-03-01T18:11:16.722Z,34.10
2023-03-01T18:14:44.076Z,36.90
2023-03-01T18:18:11.098Z,36.40
2023-03-01T18:21:38.936Z,37.90
2023-03-01T18:25:12.071Z,38.30
2023-03-01T18:28:40.376Z,37.80
2023-03-01T18:32:08.116Z,40.30
2023-03-01T18:35:40.561Z,39.60
2023-03-01T18:39:11.415Z,39.30
2023-03-01T18:42:40.802Z,39.10
2023-03-01T18:46:09.868Z,33.20
2023-03-01T18:49:38.265Z,32.00
2023-03-01T18:53:10.268Z,30.20
2023-03-01T18:56:41.027Z,25.50
2023-03-01T19:00:12.244Z,26.10
2023-03-01T19:03:40.412Z,26.00
2023-03-01T19:07:08.697Z,24.70
2023-03-01T19:10:36.260Z,23.60
2023-03-01T19:14:05.504Z,24.10
2023-03-01T19:17:32.646Z,24.50
2023-03-01T19:21:04.117Z,24.80
2023-03-01T19:24:33.117Z,23.80
2023-03-01T19:28:01.597Z,21.70
2023-03-01T19:31:31.846Z,22.70
2023-03-01T19:34:58.527Z,24.10
2023-03-01T19:38:30.562Z,26.70
2023-03-01T19:42:02.313Z,27.00
2023-03-01T19:45:33.577Z,28.10
2023-03-01T19:49:03.305Z,29.70
2023-03-01T19:52:40.116Z,34.20
2023-03-01T19:56:09.039Z,39.80
2023-03-01T19:59:36.699Z,37.20
2023-03-01T20:03:04.463Z,37.10
2023-03-01T20:06:33.672Z,40.30
2023-03-01T20:10:09.415Z,41.20
2023-03-01T20:13:40.118Z,40.80
2023-03-01T20:17:08.162Z,47.40
2023-03-01T20:20:35.666Z,45.60
2023-03-01T20:24:05.677Z,49.40
2023-03-01T20:27:33.040Z,50.00
2023-03-01T20:31:06.896Z,51.50
2023-03-01T20:34:34.712Z,56.80
2023-03-01T20:38:03.793Z,57.50
2023-03-01T20:41:32.098Z,59.20
2023-03-01T20:44:59.151Z,57.90
2023-03-01T20:48:27.703Z,53.30
2023-03-01T20:51:59.688Z,53.10
2023-03-01T20:55:26.968Z,48.30
2023-03-01T20:58:55.850Z,44.40
2023-03-01T21:02:22.797Z,43.10
2023-03-01T21:05:51.432Z,42.20
2023-03-01T21:09:17.963Z,39.30
2023-03-01T21:12:44.711Z,39.00
2023-03-01T21:16:16.111Z,40.40
2023-03-01T21:19:47.060Z,40.80
2023-03-01T21:23:14.674Z,44.30
2023-03-01T21:26:41.767Z,44.60
2023-03-01T21:30:10.814Z,41.20
2023-03-01T21:33:42.691Z,35.50
2023-03-01T21:37:13.896Z,35.60
2023-03-01T21:40:43.419Z,36.30
2023-03-01T21:44:11.261Z,37.70
2023-03-01T21:47:39.629Z,38.70
2023-03-01T21:51:07.804Z,39.80
2023-03-01T21:54:35.207Z,39.10
2023-03-01T21:58:03.297Z,38.20
2023-03-01T22:01:41.585Z,36.50
2023-03-01T22:05:12.865Z,37.20
2023-03-01T22:08:39.806Z,38.60
2023-03-01T22:12:08.973Z,38.70
2023-03-01T22:15:36.657Z,40.20
2023-03-01T22:19:04.525Z,38.40
2023-03-01T22:22:35.520Z,40.00
2023-03-01T22:26:04.486Z,43.80
2023-03-01T22:29:33.267Z,43.50
2023-03-01T22:33:00.658Z,50.70
2023-03-01T22:36:31.554Z,54.80
2023-03-01T22:40:00.842Z,43.90
2023-03-01T22:43:28.403Z,39.40
2023-03-01T22:46:56.986Z,29.90
2023-03-01T22:50:24.336Z,31.30
2023-03-01T22:53:57.041Z,29.90
2023-03-01T22:57:24.279Z,27.80
2023-03-01T23:00:53.101Z,29.70
2023-03-01T23:04:20.946Z,30.80
2023-03-01T23:07:52.183Z,31.80
2023-03-01T23:11:22.441Z,34.00
2023-03-01T23:14:49.273Z,31.90
2023-03-01T23:18:19.051Z,33.30
2023-03-01T23:21:50.622Z,32.60
2023-03-01T23:25:18.584Z,44.00
2023-03-01T23:28:46.198Z,34.40
2023-03-01T23:32:17.445Z,31.10
2023-03-01T23:35:44.937Z,53.40
2023-03-01T23:39:13.868Z,33.40
2023-03-01T23:42:41.977Z,32.60
2023-03-01T23:46:14.663Z,29.40
2023-03-01T23:49:43.752Z,27.50
2023-03-01T23:53:12.382Z,27.60
2023-03-01T23:56:43.593Z,28.20
